TimeCST,TemperatureF,Dew PointF,Humidity,Sea Level PressureIn,VisibilityMPH,Wind Direction,Wind SpeedMPH,Gust SpeedMPH,PrecipitationIn,Events,Conditions,WindDirDegrees,DateUTC
12:53 AM,26.1,25.0,96,30.13,10.0,North,3.5,-,N/A,,Clear,350,2013-02-06 06:53:00
1:53 AM,26.1,23.0,88,30.12,10.0,North,3.5,-,N/A,,Clear,350,2013-02-06 07:53:00
2:53 AM,25.0,21.9,88,30.12,10.0,Calm,Calm,-,N/A,,Clear,0,2013-02-06 08:53:00
3:53 AM,26.1,23.0,88,30.10,10.0,Calm,Calm,-,N/A,,Clear,0,2013-02-06 09:53:00
4:53 AM,30.9,26.1,82,30.11,10.0,Calm,Calm,-,N/A,,Clear,0,2013-02-06 10:53:00
5:53 AM,30.9,25.0,79,30.10,10.0,SSE,4.6,-,N/A,,Clear,150,2013-02-06 11:53:00
6:53 AM,34.0,28.0,79,30.09,10.0,South,4.6,-,N/A,,Clear,180,2013-02-06 12:53:00
7:53 AM,34.0,27.0,75,30.11,10.0,South,6.9,-,N/A,,Clear,180,2013-02-06 13:53:00
8:53 AM,37.9,28.9,70,30.11,10.0,South,10.4,-,N/A,,Clear,170,2013-02-06 14:53:00
9:53 AM,43.0,28.9,58,30.09,10.0,South,11.5,-,N/A,,Clear,170,2013-02-06 15:53:00
10:53 AM,48.9,28.9,46,30.08,10.0,SSE,16.1,-,N/A,,Clear,160,2013-02-06 16:53:00
11:53 AM,53.1,30.0,41,30.04,10.0,South,13.8,-,N/A,,Clear,170,2013-02-06 17:53:00
12:53 PM,57.0,30.9,37,30.00,10.0,South,15.0,-,N/A,,Clear,170,2013-02-06 18:53:00
1:53 PM,60.1,32.0,35,29.95,10.0,South,16.1,-,N/A,,Clear,170,2013-02-06 19:53:00
2:53 PM,60.1,33.1,36,29.92,10.0,SSE,15.0,-,N/A,,Overcast,160,2013-02-06 20:53:00
3:53 PM,60.1,35.1,39,29.90,10.0,SSE,15.0,-,N/A,,Overcast,160,2013-02-06 21:53:00
4:53 PM,59.0,37.9,46,29.88,10.0,South,16.1,-,N/A,,Mostly Cloudy,170,2013-02-06 22:53:00
5:53 PM,57.0,39.0,51,29.89,10.0,SSE,11.5,-,N/A,,Overcast,160,2013-02-06 23:53:00
6:53 PM,55.9,39.0,53,29.90,10.0,SSE,8.1,-,N/A,,Overcast,150,2013-02-07 00:53:00
7:53 PM,55.9,37.9,51,29.90,10.0,SE,9.2,-,N/A,,Overcast,130,2013-02-07 01:53:00
8:53 PM,54.0,37.9,55,29.89,10.0,SE,11.5,-,N/A,,Overcast,140,2013-02-07 02:53:00
9:53 PM,52.0,37.0,57,29.89,10.0,South,12.7,-,N/A,,Mostly Cloudy,170,2013-02-07 03:53:00
10:53 PM,50.0,37.0,61,29.90,10.0,SSW,6.9,-,N/A,,Clear,200,2013-02-07 04:53:00
11:53 PM,52.0,37.9,59,29.90,10.0,South,11.5,-,N/A,,Overcast,180,2013-02-07 05:53:00